createdAt,value
2018-03-27T00:01:46.601Z,3.14
2018-03-27T00:04:12.637Z,3.08
2018-03-27T00:06:38.747Z,3.00
2018-03-27T00:09:04.775Z,2.90
2018-03-27T00:11:31.035Z,2.86
2018-03-27T00:13:57.108Z,2.81
2018-03-27T00:16:23.165Z,2.74
2018-03-27T00:18:49.274Z,2.61
2018-03-27T00:21:15.313Z,2.64
2018-03-27T00:23:41.371Z,2.58
2018-03-27T00:26:07.519Z,2.53
2018-03-27T00:28:45.732Z,2.37
2018-03-27T00:31:24.209Z,2.44
2018-03-27T00:34:02.753Z,2.41
2018-03-27T00:36:41.249Z,2.38
2018-03-27T00:39:19.778Z,2.42
2018-03-27T00:44:58.153Z,2.31
2018-03-27T00:47:24.239Z,2.34
2018-03-27T00:49:50.286Z,2.28
2018-03-27T00:52:16.321Z,2.31
2018-03-27T00:54:42.421Z,2.27
2018-03-27T00:57:08.460Z,2.24
2018-03-27T00:59:34.505Z,2.24
2018-03-27T01:02:00.589Z,2.18
2018-03-27T01:04:26.659Z,2.13
2018-03-27T01:06:52.687Z,2.10
2018-03-27T01:09:18.765Z,2.06
2018-03-27T01:11:44.835Z,2.02
2018-03-27T01:14:10.900Z,1.98
2018-03-27T01:16:36.922Z,1.95
2018-03-27T01:19:02.992Z,1.93
2018-03-27T01:21:29.045Z,1.85
2018-03-27T01:23:55.081Z,1.88
2018-03-27T01:26:21.127Z,1.83
2018-03-27T01:28:47.199Z,1.79
2018-03-27T01:31:13.258Z,1.76
2018-03-27T01:33:39.330Z,1.69
2018-03-27T01:36:05.388Z,1.65
2018-03-27T01:38:31.560Z,1.63
2018-03-27T01:40:57.614Z,1.63
2018-03-27T01:43:23.679Z,1.65
2018-03-27T01:45:49.851Z,1.63
2018-03-27T01:48:15.901Z,1.64
2018-03-27T01:50:41.968Z,1.61
2018-03-27T01:53:07.994Z,1.57
2018-03-27T01:55:34.059Z,1.51
2018-03-27T01:58:00.274Z,1.53
2018-03-27T02:00:26.363Z,1.55
2018-03-27T02:02:52.420Z,1.53
2018-03-27T02:05:18.472Z,1.53
2018-03-27T02:07:44.596Z,1.54
2018-03-27T02:10:10.826Z,1.55
2018-03-27T02:12:42.950Z,1.54
2018-03-27T02:15:14.964Z,1.52
2018-03-27T02:17:47.173Z,1.51
2018-03-27T02:20:19.572Z,1.51
2018-03-27T02:22:51.818Z,1.44
2018-03-27T02:25:17.873Z,1.45
2018-03-27T02:27:44.085Z,1.39
2018-03-27T02:30:10.087Z,1.35
2018-03-27T02:32:36.141Z,1.34
2018-03-27T02:35:02.180Z,1.28
2018-03-27T02:37:28.257Z,1.32
2018-03-27T02:39:54.278Z,1.37
2018-03-27T02:42:20.528Z,1.39
2018-03-27T02:44:46.599Z,1.33
2018-03-27T02:47:12.768Z,1.29
2018-03-27T02:49:38.932Z,1.27
2018-03-27T02:52:04.952Z,1.26
2018-03-27T02:54:30.989Z,1.23
2018-03-27T02:56:57.181Z,1.21
2018-03-27T02:59:23.223Z,1.19
2018-03-27T03:01:49.441Z,1.19
2018-03-27T03:04:15.474Z,1.14
2018-03-27T03:06:41.583Z,1.12
2018-03-27T03:09:07.612Z,1.09
2018-03-27T03:11:33.757Z,1.13
2018-03-27T03:13:59.810Z,1.07
2018-03-27T03:16:25.888Z,1.08
2018-03-27T03:18:51.938Z,1.09
2018-03-27T03:21:17.942Z,1.11
2018-03-27T03:23:44.186Z,1.05
2018-03-27T03:26:10.257Z,1.02
2018-03-27T03:28:36.310Z,0.93
2018-03-27T03:31:02.364Z,0.96
2018-03-27T03:33:28.419Z,0.92
2018-03-27T03:35:54.616Z,0.86
2018-03-27T03:38:20.683Z,0.84
2018-03-27T03:40:46.753Z,0.81
2018-03-27T03:43:12.816Z,0.80
2018-03-27T03:45:38.903Z,0.82
2018-03-27T03:48:04.940Z,0.78
2018-03-27T03:50:30.984Z,0.62
2018-03-27T03:52:57.040Z,0.60
2018-03-27T03:55:23.085Z,0.65
2018-03-27T03:57:49.406Z,0.70
2018-03-27T04:00:15.423Z,0.70
2018-03-27T04:02:41.627Z,0.71
2018-03-27T04:05:07.913Z,0.70
2018-03-27T04:07:33.961Z,0.69
2018-03-27T04:10:00.029Z,0.69
2018-03-27T04:12:26.068Z,0.66
2018-03-27T04:14:52.141Z,0.68
2018-03-27T04:17:18.337Z,0.60
2018-03-27T04:19:44.401Z,0.56
2018-03-27T04:22:10.636Z,0.58
2018-03-27T04:24:36.707Z,0.57
2018-03-27T04:27:02.808Z,0.50
2018-03-27T04:29:28.909Z,0.51
2018-03-27T04:31:54.976Z,0.53
2018-03-27T04:34:21.040Z,0.49
2018-03-27T04:36:47.097Z,0.48
2018-03-27T04:39:13.149Z,0.42
2018-03-27T04:41:39.258Z,0.38
2018-03-27T04:44:05.321Z,0.36
2018-03-27T04:46:31.422Z,0.34
2018-03-27T04:48:57.500Z,0.37
2018-03-27T04:51:23.598Z,0.43
2018-03-27T04:53:49.658Z,0.38
2018-03-27T04:56:15.834Z,0.34
2018-03-27T04:58:41.876Z,0.32
2018-03-27T05:01:07.976Z,0.34
2018-03-27T05:03:34.018Z,0.22
2018-03-27T05:06:00.082Z,0.31
2018-03-27T05:08:26.152Z,0.29
2018-03-27T05:10:52.234Z,0.28
2018-03-27T05:13:18.275Z,0.26
2018-03-27T05:15:44.297Z,0.22
2018-03-27T05:18:10.369Z,0.26
2018-03-27T05:20:36.391Z,0.26
2018-03-27T05:23:02.609Z,0.25
2018-03-27T05:25:29.264Z,0.25
2018-03-27T05:27:55.320Z,0.24
2018-03-27T05:30:21.343Z,0.25
2018-03-27T05:32:47.418Z,0.26
2018-03-27T05:35:13.460Z,0.27
2018-03-27T05:37:39.498Z,0.31
2018-03-27T05:40:05.754Z,0.33
2018-03-27T05:42:31.812Z,0.38
2018-03-27T05:44:57.920Z,0.42
2018-03-27T05:47:23.947Z,0.43
2018-03-27T05:49:50.012Z,0.46
2018-03-27T05:52:16.144Z,0.54
2018-03-27T05:54:42.146Z,0.58
2018-03-27T05:57:08.210Z,0.59
2018-03-27T05:59:34.291Z,0.65
2018-03-27T06:02:00.386Z,0.69
2018-03-27T06:04:26.484Z,0.65
2018-03-27T06:06:52.570Z,0.65
2018-03-27T06:09:18.627Z,0.68
2018-03-27T06:11:44.702Z,0.75
2018-03-27T06:14:10.820Z,0.85
2018-03-27T06:16:37.094Z,0.88
2018-03-27T06:19:03.186Z,0.85
2018-03-27T06:21:29.268Z,0.88
2018-03-27T06:23:55.364Z,0.90
2018-03-27T06:26:21.456Z,0.97
2018-03-27T06:28:47.509Z,1.04
2018-03-27T06:31:13.673Z,1.10
2018-03-27T06:33:39.827Z,1.12
2018-03-27T06:36:05.912Z,1.17
2018-03-27T06:38:32.121Z,1.19
2018-03-27T06:40:58.202Z,1.30
2018-03-27T06:43:24.246Z,1.34
2018-03-27T06:45:50.300Z,1.42
2018-03-27T06:48:16.347Z,1.47
2018-03-27T06:50:42.428Z,1.54
2018-03-27T06:53:08.480Z,1.54
2018-03-27T06:55:34.662Z,1.59
2018-03-27T06:58:00.696Z,1.73
2018-03-27T07:00:26.792Z,1.82
2018-03-27T07:02:52.879Z,2.13
2018-03-27T07:05:18.950Z,2.36
2018-03-27T07:07:44.990Z,2.53
2018-03-27T07:10:11.055Z,2.69
2018-03-27T07:12:37.107Z,2.83
2018-03-27T07:15:03.241Z,2.76
2018-03-27T07:17:29.310Z,2.83
2018-03-27T07:19:55.389Z,2.88
2018-03-27T07:22:21.470Z,2.92
2018-03-27T07:24:47.538Z,3.01
2018-03-27T07:27:13.627Z,3.10
2018-03-27T07:29:39.686Z,3.19
2018-03-27T07:32:05.774Z,3.31
2018-03-27T07:34:31.815Z,3.31
2018-03-27T07:36:57.896Z,3.33
2018-03-27T07:39:23.959Z,3.38
2018-03-27T07:41:50.727Z,3.47
2018-03-27T07:44:16.833Z,3.52
2018-03-27T07:46:43.068Z,3.58
2018-03-27T07:49:09.123Z,3.67
2018-03-27T07:51:35.341Z,3.74
2018-03-27T07:54:01.411Z,3.77
2018-03-27T07:56:27.699Z,3.89
2018-03-27T07:58:53.756Z,3.99
2018-03-27T08:01:19.882Z,4.11
2018-03-27T08:03:45.963Z,4.16
2018-03-27T08:06:12.102Z,4.21
2018-03-27T08:08:38.208Z,4.27
2018-03-27T08:11:04.335Z,4.38
2018-03-27T08:13:45.234Z,4.44
2018-03-27T08:16:11.322Z,4.48
2018-03-27T08:18:37.557Z,4.48
2018-03-27T08:21:03.589Z,4.59
2018-03-27T08:23:29.706Z,4.71
2018-03-27T08:25:55.734Z,4.83
2018-03-27T08:28:21.841Z,4.88
2018-03-27T08:30:47.855Z,4.91
2018-03-27T08:33:13.949Z,4.95
2018-03-27T08:35:40.010Z,5.05
2018-03-27T08:38:06.071Z,5.14
2018-03-27T08:40:32.296Z,5.16
2018-03-27T08:42:58.374Z,5.24
2018-03-27T08:45:24.463Z,5.31
2018-03-27T08:47:50.528Z,5.46
2018-03-27T08:50:16.593Z,5.47
2018-03-27T08:52:42.634Z,5.54
2018-03-27T08:55:08.732Z,5.58
2018-03-27T08:57:34.762Z,5.62
2018-03-27T09:00:00.810Z,5.75
2018-03-27T09:02:27.064Z,5.81
2018-03-27T09:04:53.229Z,5.96
2018-03-27T09:07:19.293Z,6.03
2018-03-27T09:09:45.347Z,6.10
2018-03-27T09:12:11.478Z,6.23
2018-03-27T09:14:37.575Z,6.21
2018-03-27T09:17:03.757Z,6.26
2018-03-27T09:19:29.962Z,6.39
2018-03-27T09:21:55.987Z,6.44
2018-03-27T09:24:22.046Z,6.55
2018-03-27T09:26:48.079Z,6.55
2018-03-27T09:29:14.128Z,6.49
2018-03-27T09:31:40.168Z,6.47
2018-03-27T09:34:06.216Z,6.53
2018-03-27T09:36:32.430Z,6.61
2018-03-27T09:38:58.504Z,6.48
2018-03-27T09:41:24.579Z,6.63
2018-03-27T09:43:50.633Z,6.74
2018-03-27T09:46:16.674Z,6.80
2018-03-27T09:48:42.751Z,6.82
2018-03-27T09:51:08.829Z,6.94
2018-03-27T09:53:34.864Z,6.99
2018-03-27T09:56:00.897Z,7.17
2018-03-27T09:58:27.246Z,7.29
2018-03-27T10:00:53.305Z,7.37
2018-03-27T10:03:19.349Z,7.41
2018-03-27T10:05:45.406Z,7.41
2018-03-27T10:08:11.499Z,7.48
2018-03-27T10:10:37.565Z,7.62
2018-03-27T10:13:03.638Z,7.71
2018-03-27T10:15:29.723Z,7.76
2018-03-27T10:17:55.750Z,7.81
2018-03-27T10:20:21.803Z,8.01
2018-03-27T10:22:47.857Z,8.11
2018-03-27T10:25:13.890Z,8.09
2018-03-27T10:27:39.918Z,8.09
2018-03-27T10:30:06.204Z,8.28
2018-03-27T10:32:32.402Z,8.37
2018-03-27T10:34:58.438Z,8.43
2018-03-27T10:37:24.507Z,8.49
2018-03-27T10:39:50.592Z,8.68
2018-03-27T10:42:16.651Z,8.67
2018-03-27T10:44:42.800Z,8.87
2018-03-27T10:47:08.833Z,8.92
2018-03-27T10:49:34.980Z,8.90
2018-03-27T10:52:01.189Z,9.06
2018-03-27T10:54:27.237Z,9.11
2018-03-27T10:56:53.480Z,9.29
2018-03-27T10:59:19.516Z,9.46
2018-03-27T11:01:45.604Z,9.45
2018-03-27T11:04:11.617Z,9.77
2018-03-27T11:06:37.759Z,9.90
2018-03-27T11:09:03.805Z,9.92
2018-03-27T11:11:30.553Z,9.86
2018-03-27T11:13:56.863Z,9.96
2018-03-27T11:16:22.896Z,10.55
2018-03-27T11:18:48.930Z,10.98
2018-03-27T11:21:15.092Z,11.53
2018-03-27T11:23:41.182Z,12.07
2018-03-27T11:26:07.261Z,12.23
2018-03-27T11:28:33.303Z,13.08
2018-03-27T11:30:59.431Z,12.13
2018-03-27T11:33:25.509Z,11.74
2018-03-27T11:35:51.772Z,11.55
2018-03-27T11:38:17.808Z,11.34
2018-03-27T11:40:44.088Z,11.58
2018-03-27T11:43:10.132Z,12.33
2018-03-27T11:45:36.219Z,12.91
2018-03-27T11:48:02.283Z,13.08
2018-03-27T11:50:28.389Z,13.02
2018-03-27T11:52:54.443Z,13.22
2018-03-27T11:55:20.475Z,12.91
2018-03-27T11:57:46.540Z,13.10
2018-03-27T12:00:12.598Z,13.12
2018-03-27T12:02:38.746Z,13.62
2018-03-27T12:05:05.004Z,13.51
2018-03-27T12:07:31.063Z,13.42
2018-03-27T12:09:57.130Z,13.89
2018-03-27T12:12:23.173Z,14.07
2018-03-27T12:14:49.279Z,14.10
2018-03-27T12:17:15.374Z,14.36
2018-03-27T12:19:41.438Z,14.67
2018-03-27T12:22:07.536Z,14.20
2018-03-27T12:24:33.559Z,14.32
2018-03-27T12:26:59.622Z,14.63
2018-03-27T12:29:25.664Z,14.87
2018-03-27T12:31:51.702Z,14.64
2018-03-27T12:34:17.710Z,15.28
2018-03-27T12:36:43.790Z,15.53
2018-03-27T12:39:09.834Z,15.63
2018-03-27T12:41:35.922Z,15.62
2018-03-27T12:44:03.115Z,15.99
2018-03-27T12:46:29.170Z,15.98
2018-03-27T12:48:55.230Z,15.89
2018-03-27T12:51:21.342Z,16.70
2018-03-27T12:53:47.412Z,15.81
2018-03-27T12:56:13.434Z,16.28
2018-03-27T12:58:39.496Z,16.34
2018-03-27T13:01:05.561Z,16.17
2018-03-27T13:03:31.660Z,16.18
2018-03-27T13:05:57.981Z,16.11
2018-03-27T13:08:24.028Z,15.25
2018-03-27T13:10:50.106Z,15.43
2018-03-27T13:13:16.173Z,15.45
2018-03-27T13:15:42.328Z,15.91
2018-03-27T13:18:08.353Z,15.64
2018-03-27T13:20:34.373Z,15.34
2018-03-27T13:23:00.491Z,15.44
2018-03-27T13:25:26.497Z,14.43
2018-03-27T13:27:52.576Z,14.35
2018-03-27T13:30:18.610Z,14.08
2018-03-27T13:32:44.794Z,13.48
2018-03-27T13:35:10.839Z,13.43
2018-03-27T13:37:36.914Z,14.27
2018-03-27T13:40:02.999Z,15.02
2018-03-27T13:42:29.050Z,14.75
2018-03-27T13:44:55.269Z,14.93
2018-03-27T13:47:21.324Z,14.31
2018-03-27T13:49:47.407Z,13.87
2018-03-27T13:52:13.496Z,14.68
2018-03-27T13:54:39.510Z,15.31
2018-03-27T13:57:05.604Z,15.46
2018-03-27T13:59:31.698Z,15.32
2018-03-27T14:01:57.807Z,14.67
2018-03-27T14:04:23.864Z,14.26
2018-03-27T14:06:49.916Z,14.12
2018-03-27T14:09:16.178Z,13.57
2018-03-27T14:11:42.604Z,13.79
2018-03-27T14:14:08.650Z,13.71
2018-03-27T14:16:34.951Z,13.53
2018-03-27T14:19:01.014Z,13.40
2018-03-27T14:21:27.014Z,13.15
2018-03-27T14:23:53.134Z,13.05
2018-03-27T14:26:19.171Z,12.82
2018-03-27T14:28:45.256Z,12.86
2018-03-27T14:31:11.363Z,12.86
2018-03-27T14:33:37.407Z,12.70
2018-03-27T14:36:03.481Z,12.58
2018-03-27T14:38:29.556Z,12.50
2018-03-27T14:40:55.581Z,12.15
2018-03-27T14:43:21.669Z,12.08
2018-03-27T14:45:47.710Z,11.91
2018-03-27T14:48:13.752Z,11.82
2018-03-27T14:50:39.814Z,11.68
2018-03-27T14:53:05.960Z,11.66
2018-03-27T14:55:31.979Z,11.61
2018-03-27T14:57:58.080Z,11.65
2018-03-27T15:00:24.111Z,11.77
2018-03-27T15:02:50.206Z,11.94
2018-03-27T15:05:16.316Z,12.09
2018-03-27T15:07:42.379Z,12.15
2018-03-27T15:10:08.443Z,12.38
2018-03-27T15:12:34.466Z,12.80
2018-03-27T15:15:00.685Z,12.74
2018-03-27T15:17:26.719Z,12.72
2018-03-27T15:19:52.910Z,12.77
2018-03-27T15:22:18.960Z,12.70
2018-03-27T15:24:45.048Z,12.67
2018-03-27T15:27:11.111Z,12.61
2018-03-27T15:29:37.157Z,12.52
2018-03-27T15:32:03.233Z,12.36
2018-03-27T15:34:29.284Z,12.22
2018-03-27T15:36:55.390Z,12.17
2018-03-27T15:39:21.459Z,11.97
2018-03-27T15:41:47.617Z,11.88
2018-03-27T15:44:13.730Z,11.84
2018-03-27T15:46:39.830Z,11.82
2018-03-27T15:49:06.551Z,11.68
2018-03-27T15:51:32.707Z,11.63
2018-03-27T15:53:58.808Z,11.48
2018-03-27T15:56:24.891Z,11.35
2018-03-27T15:58:51.008Z,11.22
2018-03-27T16:01:17.057Z,11.20
2018-03-27T16:03:43.116Z,11.22
2018-03-27T16:06:09.219Z,11.16
2018-03-27T16:08:35.521Z,11.08
2018-03-27T16:11:01.662Z,11.00
2018-03-27T16:13:27.747Z,10.87
2018-03-27T16:15:53.914Z,10.83
2018-03-27T16:18:20.032Z,10.82
2018-03-27T16:20:46.064Z,10.86
2018-03-27T16:23:12.223Z,10.74
2018-03-27T16:25:38.294Z,10.67
2018-03-27T16:28:04.547Z,10.64
2018-03-27T16:30:30.684Z,10.59
2018-03-27T16:32:56.842Z,10.60
2018-03-27T16:35:22.908Z,10.43
2018-03-27T16:37:49.020Z,10.43
2018-03-27T16:40:15.134Z,10.38
2018-03-27T16:42:41.341Z,10.28
2018-03-27T16:45:07.476Z,10.20
2018-03-27T16:47:34.205Z,10.02
2018-03-27T16:50:00.406Z,9.96
2018-03-27T16:52:26.542Z,9.92
2018-03-27T16:54:52.639Z,9.93
2018-03-27T16:57:18.750Z,9.91
2018-03-27T16:59:44.807Z,9.78
2018-03-27T17:02:10.900Z,9.76
2018-03-27T17:04:37.103Z,9.73
2018-03-27T17:07:03.243Z,9.71
2018-03-27T17:09:29.554Z,9.67
2018-03-27T17:11:55.607Z,9.66
2018-03-27T17:14:21.685Z,9.64
2018-03-27T17:16:47.747Z,9.51
2018-03-27T17:19:13.906Z,9.55
2018-03-27T17:21:39.972Z,9.52
2018-03-27T17:24:06.072Z,9.47
2018-03-27T17:26:32.112Z,9.44
2018-03-27T17:28:58.325Z,9.38
2018-03-27T17:31:24.515Z,9.40
2018-03-27T17:33:50.669Z,9.40
2018-03-27T17:36:16.737Z,9.39
2018-03-27T17:38:42.964Z,9.36
2018-03-27T17:41:09.150Z,9.31
2018-03-27T17:43:35.245Z,9.30
2018-03-27T17:46:01.332Z,9.29
2018-03-27T17:48:27.475Z,9.23
2018-03-27T17:50:53.791Z,9.21
2018-03-27T17:53:19.898Z,9.14
2018-03-27T17:55:45.985Z,9.04
2018-03-27T17:58:12.072Z,9.05
2018-03-27T18:00:38.230Z,9.04
2018-03-27T18:03:05.390Z,9.03
2018-03-27T18:05:31.619Z,9.00
2018-03-27T18:07:57.740Z,8.89
2018-03-27T18:10:23.889Z,8.88
2018-03-27T18:12:50.111Z,8.89
2018-03-27T18:15:16.258Z,8.86
2018-03-27T18:17:42.374Z,8.85
2018-03-27T18:20:08.462Z,8.82
2018-03-27T18:22:34.725Z,8.80
2018-03-27T18:25:00.917Z,8.81
2018-03-27T18:27:27.026Z,8.73
2018-03-27T18:29:53.269Z,8.74
2018-03-27T18:32:19.619Z,8.77
2018-03-27T18:34:45.743Z,8.74
2018-03-27T18:37:12.254Z,8.71
2018-03-27T18:39:38.712Z,8.68
2018-03-27T18:42:05.136Z,8.70
2018-03-27T18:44:32.153Z,8.70
2018-03-27T18:46:58.307Z,8.68
2018-03-27T18:49:24.572Z,8.64
2018-03-27T18:51:50.662Z,8.65
2018-03-27T18:54:16.767Z,8.59
2018-03-27T18:56:42.950Z,8.60
2018-03-27T18:59:09.650Z,8.60
2018-03-27T19:01:36.598Z,8.51
2018-03-27T19:04:02.981Z,8.51
2018-03-27T19:06:30.089Z,8.51
2018-03-27T19:08:56.154Z,8.54
2018-03-27T19:11:22.352Z,8.53
2018-03-27T19:13:49.298Z,8.50
2018-03-27T19:16:15.412Z,8.51
2018-03-27T19:18:41.514Z,8.46
2018-03-27T19:21:07.710Z,8.45
2018-03-27T19:23:33.803Z,8.46
2018-03-27T19:25:59.874Z,8.43
2018-03-27T19:28:26.076Z,8.42
2018-03-27T19:30:52.162Z,8.34
2018-03-27T19:33:18.240Z,8.34
2018-03-27T19:35:44.345Z,8.34
2018-03-27T19:38:11.110Z,8.39
2018-03-27T19:40:37.374Z,8.33
2018-03-27T19:43:03.524Z,8.31
2018-03-27T19:45:29.870Z,8.33
2018-03-27T19:47:57.110Z,8.32
2018-03-27T19:50:24.139Z,8.33
2018-03-27T19:52:50.239Z,8.34
2018-03-27T19:55:16.744Z,8.34
2018-03-27T19:57:43.861Z,8.32
2018-03-27T20:00:10.041Z,8.30
2018-03-27T20:02:36.159Z,8.31
2018-03-27T20:05:02.493Z,8.32
2018-03-27T20:07:28.660Z,8.28
2018-03-27T20:09:54.871Z,8.28
2018-03-27T20:12:21.066Z,8.28
2018-03-27T20:14:47.151Z,8.28
2018-03-27T20:17:13.243Z,8.32
2018-03-27T20:19:39.490Z,8.26
2018-03-27T20:22:05.609Z,8.28
2018-03-27T20:24:31.756Z,8.27
2018-03-27T20:26:57.890Z,8.23
2018-03-27T20:29:24.080Z,8.25
2018-03-27T20:31:50.193Z,8.22
2018-03-27T20:34:16.364Z,8.16
2018-03-27T20:36:42.427Z,8.09
2018-03-27T20:39:08.536Z,8.06
2018-03-27T20:41:34.667Z,8.03
2018-03-27T20:44:00.827Z,7.96
2018-03-27T20:46:27.014Z,7.94
2018-03-27T20:48:53.142Z,7.90
2018-03-27T20:51:19.345Z,7.87
2018-03-27T20:53:45.427Z,7.75
2018-03-27T20:56:11.486Z,7.76
2018-03-27T20:58:37.622Z,7.71
2018-03-27T21:01:03.731Z,7.59
2018-03-27T21:03:29.984Z,7.57
2018-03-27T21:05:56.079Z,7.51
2018-03-27T21:08:22.232Z,7.47
2018-03-27T21:10:49.374Z,7.35
2018-03-27T21:13:15.510Z,7.29
2018-03-27T21:15:41.637Z,7.24
2018-03-27T21:18:07.715Z,7.17
2018-03-27T21:20:34.801Z,7.18
2018-03-27T21:23:00.936Z,7.17
2018-03-27T21:25:27.005Z,7.09
2018-03-27T21:27:53.072Z,7.06
2018-03-27T21:30:19.199Z,7.04
2018-03-27T21:32:45.279Z,6.99
2018-03-27T21:35:11.395Z,6.92
2018-03-27T21:37:37.688Z,6.91
2018-03-27T21:40:03.981Z,6.94
2018-03-27T21:42:30.049Z,6.86
2018-03-27T21:44:56.236Z,6.87
2018-03-27T21:47:22.345Z,6.83
2018-03-27T21:49:48.394Z,6.80
2018-03-27T21:52:15.203Z,6.74
2018-03-27T21:54:41.274Z,6.71
2018-03-27T21:57:07.321Z,6.72
2018-03-27T21:59:33.398Z,6.68
2018-03-27T22:01:59.532Z,6.63
2018-03-27T22:04:25.658Z,6.61
2018-03-27T22:06:51.877Z,6.59
2018-03-27T22:09:17.932Z,6.49
2018-03-27T22:11:44.038Z,6.47
2018-03-27T22:14:10.100Z,6.47
2018-03-27T22:16:36.275Z,6.45
2018-03-27T22:19:02.311Z,6.39
2018-03-27T22:21:28.331Z,6.37
2018-03-27T22:23:54.364Z,6.37
2018-03-27T22:26:20.410Z,6.39
2018-03-27T22:28:46.480Z,6.37
2018-03-27T22:31:12.495Z,6.39
2018-03-27T22:33:38.565Z,6.29
2018-03-27T22:36:04.733Z,6.34
2018-03-27T22:38:30.786Z,6.31
2018-03-27T22:40:56.871Z,6.32
2018-03-27T22:43:22.967Z,6.31
2018-03-27T22:45:49.031Z,6.30
2018-03-27T22:48:15.134Z,6.26
2018-03-27T22:50:41.212Z,6.31
2018-03-27T22:53:07.237Z,6.34
2018-03-27T22:55:33.301Z,6.31
2018-03-27T22:57:59.364Z,6.34
2018-03-27T23:00:25.438Z,6.36
2018-03-27T23:02:51.489Z,6.29
2018-03-27T23:05:17.565Z,6.29
2018-03-27T23:07:43.819Z,6.31
2018-03-27T23:10:09.902Z,6.30
2018-03-27T23:12:35.958Z,6.29
2018-03-27T23:15:02.102Z,6.27
2018-03-27T23:17:28.222Z,6.23
2018-03-27T23:19:54.261Z,6.23
2018-03-27T23:22:30.518Z,6.22
2018-03-27T23:24:56.578Z,6.23
2018-03-27T23:27:22.612Z,6.23
2018-03-27T23:29:48.680Z,6.20
2018-03-27T23:32:14.739Z,6.19
2018-03-27T23:34:40.885Z,6.18
2018-03-27T23:37:06.954Z,6.15
2018-03-27T23:39:33.025Z,6.17
2018-03-27T23:41:59.138Z,6.18
2018-03-27T23:44:25.199Z,6.16
2018-03-27T23:46:51.484Z,6.11
2018-03-27T23:49:17.532Z,6.14
2018-03-27T23:51:43.587Z,6.09
2018-03-27T23:54:09.799Z,6.13
2018-03-27T23:56:35.919Z,6.10
2018-03-27T23:59:01.934Z,6.02
